Terminal Aerodrome Forecast
Issued by NWS

Home | Current Version | Previous Version | Text Only | Print | Product List | Glossary On
Versions: 1 2 3 4 5 6 7 8 9 10 11 12 13 14
000
FTUS44 KEPZ 010600 AAA
TAFTCS
TAF AMD
KTCS 010653Z 0107/0206 02006KT P6SM BKN004
     FM010900 34007KT P6SM BKN004
      TEMPO 0109/0113 2SM BR
     FM011600 02007KT P6SM BKN030 BKN080
     FM012200 03007KT P6SM SCT050 SCT200
     FM020300 33005KT P6SM FEW050 SCT200=

USA.gov is the U.S. government's official web portal to all federal, state and local government web resources and services.